Aérodrome :
LOGIN :

S'inscrire | Disclaimer

   EN    FR    IT 

 










Légende :    VFR   VFR Marginal   IFR   IFR Intensif   IFR Très Intensif
Visi : 
Plafond : 
>= 8 km
>= 3000ft
5 à 8 km
1000 à 3000 ft
1500m à 5 km
500 à 1000 ft
800 à 1500m
200 à 500 ft
< 800m
< 200 ft
Symboles :   Orages  Brouillard  Fortes neiges  Fortes précipitations  Vent > 20 kt
SIGMETs :   Divers  Orages  Givrage  Turbulence  Onde Orograph.  Cendres Volcan.






- Altitude de l'aérodrome : 302 ft
- Code IATA : CGN


EDDK - Cologne Bonn

DERNIER METAR :
  • 301850Z AUTO 28014KT 9999 VCSH BKN016 BKN029 FEW///TCU 15/13 Q1013 TEMPO 27020G35KT 4500 TSRA BKN014CB

METARs EXPIRÉS :
  • 301820Z AUTO 28020KT 9999 SCT013 BKN017 16/13 Q1013 RETSRA TEMPO 27020G35KT 4500 TSRA BKN014CB
  • 301750Z AUTO 28017KT 9999 TSRA BKN013 SCT///CB 16/15 Q1012 TEMPO 27010KT NSW BKN025
  • 301720Z AUTO 28019KT 250V310 9999 SHRA VCTS BKN014 FEW///CB 18/15 Q1011 TEMPO 26025G45KT 3000 +TSGRRA BKN012CB
  • 301650Z AUTO 27021G34KT 9999 SHRA FEW///CB 23/16 Q1009 TEMPO 26025G45KT TSGRRA BKN020CB
  • 301620Z AUTO 14007KT 100V170 CAVOK 29/13 Q1007 TEMPO 25020G40KT 4000 TSRA BKN020CB

TAF TAF EDDK
Valide du 30 à 18h jusqu'au 02 à 00h UTC


301700Z 3018/0124 28009KT 9999 SCT030
PROB40
TEMPO 3018/3024 25015G30KT TSRA BKN020CB
PROB30
TEMPO 3018/3021 26025G45KT 3000 +TSRA
TEMPO 3021/0107 BKN012
PROB30
TEMPO 3023/0105 RA BKN008
BECMG 0119/0120 VRB03KT



MET'MAP, la Météo Aéronautique d'un coup d'oeil ! - Copyright ORBIFLY Décembre 2007 - Disclaimer

ORBIFLY MET'MAP TEAM :

Programmation & Développement : Alexandra Zaïnal
Sur une idée originale de : Baudouin d'Aumeries
Soutien technique & logistique : Manuel Goepfert
Assistance : Marc-Olivier Méhu




SOURCES & CREDITS :

   NOAA